KLM42A EHAM-EDDH
Flight info
| Callsign | KLM42A |
|---|---|
| Flight time | 0h 37m |
| Altitude | 29000 |
| Route | ANDIK M105 RIBSO RIBSO7A |
| Aircraft | A21N/M-SDE2E3FGHIRWXY/LB1 |
Departure
| Time | 2026-05-07 13:27 |
|---|---|
| Airport | Amsterdam Airport Schiphol (EHAM) |
Arrival
| Time | 2026-05-07 14:05 |
|---|---|
| Airport | Hamburg Helmut Schmidt Airport (EDDH) |
| Time | Latitude | Longitude | Altitude | Speed | Heading |
|---|---|---|---|---|---|
| 2026-05-07 13:00 | 52.31148 | 4.77068 | 9 ft | 0 kts | 2° |
| 2026-05-07 13:11 | 52.31144 | 4.77067 | 9 ft | 2 kts | 3° |
| 2026-05-07 13:11 | 52.31130 | 4.77066 | 9 ft | 2 kts | 2° |
| 2026-05-07 13:11 | 52.31115 | 4.77065 | 10 ft | 2 kts | 2° |
| 2026-05-07 13:11 | 52.31099 | 4.77064 | 10 ft | 2 kts | 2° |
| 2026-05-07 13:12 | 52.31090 | 4.77063 | 10 ft | 2 kts | 2° |
| 2026-05-07 13:12 | 52.31079 | 4.77072 | 10 ft | 1 kts | 296° |
| 2026-05-07 13:12 | 52.31077 | 4.77085 | 10 ft | 1 kts | 268° |
| 2026-05-07 13:12 | 52.31077 | 4.77092 | 10 ft | 0 kts | 274° |
| 2026-05-07 13:14 | 52.31078 | 4.77092 | 10 ft | 0 kts | 273° |
| 2026-05-07 13:16 | 52.31078 | 4.77079 | 10 ft | 2 kts | 274° |
| 2026-05-07 13:16 | 52.31078 | 4.77072 | 10 ft | 0 kts | 274° |
| 2026-05-07 13:18 | 52.31078 | 4.77071 | 10 ft | 2 kts | 274° |
| 2026-05-07 13:18 | 52.31142 | 4.76931 | 9 ft | 27 kts | 349° |
| 2026-05-07 13:19 | 52.31260 | 4.77058 | 7 ft | 19 kts | 39° |
| 2026-05-07 13:19 | 52.31366 | 4.77175 | 7 ft | 18 kts | 21° |
| 2026-05-07 13:19 | 52.31433 | 4.77192 | 5 ft | 0 kts | 4° |
| 2026-05-07 13:21 | 52.31459 | 4.77195 | 4 ft | 8 kts | 3° |
| 2026-05-07 13:21 | 52.31548 | 4.77172 | 1 ft | 17 kts | 314° |
| 2026-05-07 13:21 | 52.31562 | 4.76942 | 0 ft | 23 kts | 269° |
| 2026-05-07 13:22 | 52.31554 | 4.76629 | -1 ft | 29 kts | 269° |
| 2026-05-07 13:22 | 52.31544 | 4.76297 | -2 ft | 26 kts | 266° |
| 2026-05-07 13:22 | 52.31536 | 4.76014 | -2 ft | 24 kts | 268° |
| 2026-05-07 13:22 | 52.31526 | 4.75759 | 0 ft | 20 kts | 266° |
| 2026-05-07 13:23 | 52.31518 | 4.75540 | 2 ft | 18 kts | 266° |
| 2026-05-07 13:23 | 52.31508 | 4.75324 | 0 ft | 20 kts | 265° |
| 2026-05-07 13:23 | 52.31501 | 4.75091 | -2 ft | 21 kts | 268° |
| 2026-05-07 13:23 | 52.31493 | 4.74847 | -3 ft | 20 kts | 267° |
| 2026-05-07 13:24 | 52.31535 | 4.74666 | -7 ft | 12 kts | 344° |
| 2026-05-07 13:24 | 52.31562 | 4.74660 | -7 ft | 0 kts | 356° |
| 2026-05-07 13:25 | 52.31563 | 4.74660 | -7 ft | 0 kts | 356° |
| 2026-05-07 13:25 | 52.31622 | 4.74671 | -7 ft | 16 kts | 25° |
| 2026-05-07 13:26 | 52.31670 | 4.74862 | -7 ft | 17 kts | 83° |
| 2026-05-07 13:26 | 52.31675 | 4.74971 | -7 ft | 4 kts | 87° |
| 2026-05-07 13:26 | 52.31676 | 4.74987 | -7 ft | 0 kts | 87° |
| 2026-05-07 13:26 | 52.31676 | 4.74998 | -7 ft | 8 kts | 86° |
| 2026-05-07 13:27 | 52.31696 | 4.75540 | -1 ft | 85 kts | 88° |
| 2026-05-07 13:27 | 52.31741 | 4.76895 | -3 ft | 149 kts | 86° |
| 2026-05-07 13:27 | 52.31798 | 4.78780 | 331 ft | 172 kts | 86° |
| 2026-05-07 13:27 | 52.31846 | 4.80700 | 1080 ft | 171 kts | 85° |
| 2026-05-07 13:28 | 52.31908 | 4.82642 | 1806 ft | 172 kts | 85° |
| 2026-05-07 13:28 | 52.31995 | 4.84594 | 2303 ft | 177 kts | 83° |
| 2026-05-07 13:28 | 52.32137 | 4.86637 | 2681 ft | 190 kts | 81° |
| 2026-05-07 13:28 | 52.32338 | 4.88864 | 2997 ft | 208 kts | 75° |
| 2026-05-07 13:29 | 52.32906 | 4.91137 | 3315 ft | 227 kts | 58° |
| 2026-05-07 13:29 | 52.33832 | 4.93336 | 3733 ft | 244 kts | 54° |
| 2026-05-07 13:29 | 52.34859 | 4.95641 | 4265 ft | 257 kts | 54° |
| 2026-05-07 13:29 | 52.35908 | 4.97996 | 5006 ft | 261 kts | 54° |
| 2026-05-07 13:30 | 52.37004 | 5.00368 | 5767 ft | 265 kts | 47° |
| 2026-05-07 13:30 | 52.38529 | 5.02073 | 6486 ft | 270 kts | 25° |
| 2026-05-07 13:30 | 52.40273 | 5.03205 | 7247 ft | 273 kts | 21° |
| 2026-05-07 13:30 | 52.42038 | 5.04279 | 7973 ft | 277 kts | 21° |
| 2026-05-07 13:31 | 52.43849 | 5.05437 | 8728 ft | 280 kts | 22° |
| 2026-05-07 13:31 | 52.45654 | 5.06650 | 9459 ft | 284 kts | 22° |
| 2026-05-07 13:31 | 52.47478 | 5.07918 | 10145 ft | 288 kts | 23° |
| 2026-05-07 13:31 | 52.49325 | 5.09225 | 10667 ft | 298 kts | 23° |
| 2026-05-07 13:32 | 52.51283 | 5.10624 | 10999 ft | 315 kts | 23° |
| 2026-05-07 13:32 | 52.53332 | 5.12100 | 11312 ft | 331 kts | 23° |
| 2026-05-07 13:32 | 52.55484 | 5.13654 | 11602 ft | 347 kts | 23° |
| 2026-05-07 13:32 | 52.57718 | 5.15273 | 12086 ft | 355 kts | 23° |
| 2026-05-07 13:33 | 52.59981 | 5.16917 | 12681 ft | 358 kts | 23° |
| 2026-05-07 13:33 | 52.62264 | 5.18579 | 13010 ft | 359 kts | 23° |
| 2026-05-07 13:33 | 52.64548 | 5.20245 | 13055 ft | 359 kts | 23° |
| 2026-05-07 13:33 | 52.66815 | 5.21899 | 13062 ft | 358 kts | 23° |
| 2026-05-07 13:34 | 52.69111 | 5.23574 | 13065 ft | 358 kts | 23° |
| 2026-05-07 13:34 | 52.73432 | 5.27722 | 13772 ft | 367 kts | 45° |
| 2026-05-07 13:34 | 52.74840 | 5.31106 | 14467 ft | 367 kts | 64° |
| 2026-05-07 13:35 | 52.75755 | 5.35060 | 15090 ft | 369 kts | 70° |
| 2026-05-07 13:35 | 52.76609 | 5.39079 | 15634 ft | 373 kts | 70° |
| 2026-05-07 13:35 | 52.77461 | 5.43109 | 16188 ft | 376 kts | 70° |
| 2026-05-07 13:35 | 52.78334 | 5.47226 | 16734 ft | 379 kts | 70° |
| 2026-05-07 13:36 | 52.79198 | 5.51284 | 17235 ft | 382 kts | 70° |
| 2026-05-07 13:36 | 52.80082 | 5.55432 | 17749 ft | 385 kts | 70° |
| 2026-05-07 13:36 | 52.80976 | 5.59621 | 18254 ft | 388 kts | 70° |
| 2026-05-07 13:36 | 52.81869 | 5.63814 | 18724 ft | 391 kts | 70° |
| 2026-05-07 13:37 | 52.82780 | 5.68089 | 19217 ft | 393 kts | 70° |
| 2026-05-07 13:37 | 52.83688 | 5.72361 | 19661 ft | 396 kts | 71° |
| 2026-05-07 13:37 | 52.84598 | 5.76651 | 20112 ft | 399 kts | 71° |
| 2026-05-07 13:37 | 52.85523 | 5.81015 | 20557 ft | 402 kts | 71° |
| 2026-05-07 13:38 | 52.86441 | 5.85363 | 20967 ft | 405 kts | 71° |
| 2026-05-07 13:38 | 52.87372 | 5.89779 | 21383 ft | 408 kts | 71° |
| 2026-05-07 13:38 | 52.88305 | 5.94212 | 21787 ft | 411 kts | 71° |
| 2026-05-07 13:38 | 52.89242 | 5.98679 | 22184 ft | 413 kts | 71° |
| 2026-05-07 13:39 | 52.90182 | 6.03166 | 22572 ft | 415 kts | 71° |
| 2026-05-07 13:39 | 52.91125 | 6.07679 | 22959 ft | 418 kts | 71° |
| 2026-05-07 13:39 | 52.92071 | 6.12213 | 23328 ft | 420 kts | 71° |
| 2026-05-07 13:39 | 52.93022 | 6.16787 | 23691 ft | 423 kts | 71° |
| 2026-05-07 13:40 | 52.93971 | 6.21360 | 24046 ft | 425 kts | 71° |
| 2026-05-07 13:40 | 52.94930 | 6.25994 | 24395 ft | 427 kts | 71° |
| 2026-05-07 13:40 | 52.95898 | 6.30682 | 24751 ft | 429 kts | 71° |
| 2026-05-07 13:40 | 52.96866 | 6.35378 | 25106 ft | 431 kts | 71° |
| 2026-05-07 13:41 | 52.97827 | 6.40052 | 25447 ft | 433 kts | 71° |
| 2026-05-07 13:41 | 52.98793 | 6.44763 | 25769 ft | 435 kts | 71° |
| 2026-05-07 13:41 | 52.99770 | 6.49533 | 26081 ft | 437 kts | 71° |
| 2026-05-07 13:41 | 53.00742 | 6.54291 | 26358 ft | 440 kts | 71° |
| 2026-05-07 13:42 | 53.01727 | 6.59126 | 26672 ft | 441 kts | 71° |
| 2026-05-07 13:42 | 53.02702 | 6.63925 | 26950 ft | 443 kts | 71° |
| 2026-05-07 13:42 | 53.03682 | 6.68763 | 27238 ft | 445 kts | 72° |
| 2026-05-07 13:42 | 53.04662 | 6.73616 | 27514 ft | 447 kts | 72° |
| 2026-05-07 13:43 | 53.05650 | 6.78519 | 27782 ft | 449 kts | 72° |
| 2026-05-07 13:43 | 53.06639 | 6.83441 | 28054 ft | 451 kts | 72° |
| 2026-05-07 13:43 | 53.07635 | 6.88406 | 28313 ft | 453 kts | 72° |
| 2026-05-07 13:43 | 53.08617 | 6.93317 | 28556 ft | 455 kts | 72° |
| 2026-05-07 13:44 | 53.09625 | 6.98372 | 28808 ft | 457 kts | 72° |
| 2026-05-07 13:44 | 53.10612 | 7.03340 | 29025 ft | 459 kts | 72° |
| 2026-05-07 13:44 | 53.11618 | 7.08409 | 29037 ft | 459 kts | 72° |
| 2026-05-07 13:45 | 53.13607 | 7.18466 | 29045 ft | 459 kts | 72° |
| 2026-05-07 13:45 | 53.15589 | 7.28544 | 29052 ft | 460 kts | 72° |
| 2026-05-07 13:46 | 53.17567 | 7.38661 | 29053 ft | 460 kts | 72° |
| 2026-05-07 13:46 | 53.19526 | 7.48726 | 29053 ft | 459 kts | 72° |
| 2026-05-07 13:47 | 53.21482 | 7.58846 | 29058 ft | 460 kts | 72° |
| 2026-05-07 13:47 | 53.23452 | 7.69056 | 29061 ft | 460 kts | 72° |
| 2026-05-07 13:48 | 53.25399 | 7.79203 | 29063 ft | 461 kts | 72° |
| 2026-05-07 13:48 | 53.27342 | 7.89389 | 29044 ft | 461 kts | 72° |
| 2026-05-07 13:48 | 53.28307 | 7.94476 | 28776 ft | 459 kts | 72° |
| 2026-05-07 13:49 | 53.29256 | 7.99492 | 28498 ft | 456 kts | 72° |
| 2026-05-07 13:49 | 53.29982 | 8.04597 | 27932 ft | 455 kts | 81° |
| 2026-05-07 13:49 | 53.30270 | 8.09877 | 26909 ft | 460 kts | 86° |
| 2026-05-07 13:49 | 53.30420 | 8.15187 | 26029 ft | 460 kts | 87° |
| 2026-05-07 13:50 | 53.30562 | 8.20494 | 25370 ft | 455 kts | 87° |
| 2026-05-07 13:50 | 53.30727 | 8.25742 | 24738 ft | 450 kts | 86° |
| 2026-05-07 13:50 | 53.30911 | 8.30907 | 24082 ft | 446 kts | 86° |
| 2026-05-07 13:50 | 53.31108 | 8.36065 | 23433 ft | 442 kts | 86° |
| 2026-05-07 13:51 | 53.31311 | 8.41168 | 22806 ft | 438 kts | 86° |
| 2026-05-07 13:51 | 53.31516 | 8.46189 | 22179 ft | 434 kts | 85° |
| 2026-05-07 13:51 | 53.31717 | 8.51141 | 21566 ft | 430 kts | 85° |
| 2026-05-07 13:51 | 53.31919 | 8.56144 | 20939 ft | 426 kts | 85° |
| 2026-05-07 13:52 | 53.32114 | 8.60993 | 20239 ft | 425 kts | 85° |
| 2026-05-07 13:52 | 53.32310 | 8.65899 | 19490 ft | 424 kts | 86° |
| 2026-05-07 13:52 | 53.32504 | 8.70809 | 18736 ft | 423 kts | 86° |
| 2026-05-07 13:52 | 53.32696 | 8.75705 | 17991 ft | 422 kts | 86° |
| 2026-05-07 13:53 | 53.32885 | 8.80560 | 17256 ft | 421 kts | 86° |
| 2026-05-07 13:53 | 53.33070 | 8.85397 | 16517 ft | 419 kts | 86° |
| 2026-05-07 13:53 | 53.33255 | 8.90241 | 15784 ft | 418 kts | 86° |
| 2026-05-07 13:53 | 53.33435 | 8.95064 | 15039 ft | 416 kts | 86° |
| 2026-05-07 13:54 | 53.33614 | 8.99862 | 14312 ft | 413 kts | 86° |
| 2026-05-07 13:54 | 53.33786 | 9.04566 | 13580 ft | 397 kts | 86° |
| 2026-05-07 13:54 | 53.33949 | 9.09050 | 12850 ft | 379 kts | 86° |
| 2026-05-07 13:54 | 53.34101 | 9.13292 | 12124 ft | 363 kts | 86° |
| 2026-05-07 13:55 | 53.34247 | 9.17405 | 11391 ft | 348 kts | 86° |
| 2026-05-07 13:55 | 53.34386 | 9.21345 | 10659 ft | 336 kts | 86° |
| 2026-05-07 13:55 | 53.34519 | 9.25179 | 9925 ft | 326 kts | 86° |
| 2026-05-07 13:55 | 53.34647 | 9.28914 | 9192 ft | 316 kts | 86° |
| 2026-05-07 13:56 | 53.34768 | 9.32492 | 8468 ft | 308 kts | 86° |
| 2026-05-07 13:56 | 53.34887 | 9.35994 | 7734 ft | 300 kts | 85° |
| 2026-05-07 13:56 | 53.35003 | 9.39431 | 6997 ft | 293 kts | 85° |
| 2026-05-07 13:56 | 53.35359 | 9.42668 | 6358 ft | 281 kts | 68° |
| 2026-05-07 13:57 | 53.36306 | 9.45428 | 5863 ft | 268 kts | 52° |
| 2026-05-07 13:57 | 53.37528 | 9.47695 | 5437 ft | 255 kts | 46° |
| 2026-05-07 13:57 | 53.38729 | 9.49787 | 5083 ft | 243 kts | 47° |
| 2026-05-07 13:57 | 53.39863 | 9.51845 | 4772 ft | 238 kts | 49° |
| 2026-05-07 13:58 | 53.40936 | 9.53879 | 4482 ft | 234 kts | 49° |
| 2026-05-07 13:58 | 53.41974 | 9.55913 | 4388 ft | 221 kts | 50° |
| 2026-05-07 13:58 | 53.42928 | 9.57823 | 4301 ft | 213 kts | 51° |
| 2026-05-07 13:58 | 53.43885 | 9.59769 | 4220 ft | 219 kts | 51° |
| 2026-05-07 13:59 | 53.44857 | 9.61762 | 3969 ft | 221 kts | 51° |
| 2026-05-07 13:59 | 53.45824 | 9.63751 | 3652 ft | 220 kts | 51° |
| 2026-05-07 13:59 | 53.46780 | 9.65719 | 3368 ft | 217 kts | 52° |
| 2026-05-07 13:59 | 53.47723 | 9.67658 | 3168 ft | 211 kts | 52° |
| 2026-05-07 14:00 | 53.48643 | 9.69546 | 2981 ft | 204 kts | 52° |
| 2026-05-07 14:00 | 53.49506 | 9.71314 | 2962 ft | 188 kts | 52° |
| 2026-05-07 14:00 | 53.50299 | 9.72934 | 3039 ft | 177 kts | 52° |
| 2026-05-07 14:00 | 53.51073 | 9.74517 | 3002 ft | 175 kts | 52° |
| 2026-05-07 14:01 | 53.51853 | 9.76109 | 2985 ft | 175 kts | 52° |
| 2026-05-07 14:01 | 53.52623 | 9.77679 | 2873 ft | 176 kts | 52° |
| 2026-05-07 14:01 | 53.53405 | 9.79272 | 2641 ft | 174 kts | 52° |
| 2026-05-07 14:01 | 53.54169 | 9.80828 | 2413 ft | 170 kts | 52° |
| 2026-05-07 14:02 | 53.54907 | 9.82326 | 2181 ft | 162 kts | 51° |
| 2026-05-07 14:02 | 53.55599 | 9.83731 | 1967 ft | 154 kts | 52° |
| 2026-05-07 14:02 | 53.56271 | 9.85096 | 1767 ft | 149 kts | 52° |
| 2026-05-07 14:02 | 53.56931 | 9.86439 | 1582 ft | 148 kts | 51° |
| 2026-05-07 14:03 | 53.57561 | 9.87716 | 1413 ft | 141 kts | 53° |
| 2026-05-07 14:03 | 53.58191 | 9.88998 | 1228 ft | 142 kts | 52° |
| 2026-05-07 14:03 | 53.58821 | 9.90278 | 1037 ft | 138 kts | 51° |
| 2026-05-07 14:03 | 53.59418 | 9.91485 | 827 ft | 131 kts | 52° |
| 2026-05-07 14:04 | 53.59993 | 9.92655 | 660 ft | 131 kts | 50° |
| 2026-05-07 14:04 | 53.60572 | 9.93822 | 485 ft | 132 kts | 53° |
| 2026-05-07 14:04 | 53.61160 | 9.95006 | 322 ft | 132 kts | 53° |
| 2026-05-07 14:04 | 53.61745 | 9.96216 | 155 ft | 131 kts | 51° |
| 2026-05-07 14:05 | 53.62324 | 9.97393 | 33 ft | 130 kts | 49° |
| 2026-05-07 14:05 | 53.62848 | 9.98453 | 38 ft | 97 kts | 48° |
| 2026-05-07 14:05 | 53.63154 | 9.99077 | 35 ft | 43 kts | 46° |
| 2026-05-07 14:05 | 53.63289 | 9.99389 | 32 ft | 22 kts | 73° |
| 2026-05-07 14:06 | 53.63288 | 9.99524 | 32 ft | 4 kts | 98° |
| 2026-05-07 14:06 | 53.63284 | 9.99579 | 32 ft | 5 kts | 97° |
| 2026-05-07 14:06 | 53.63279 | 9.99634 | 32 ft | 5 kts | 99° |
| 2026-05-07 14:06 | 53.63274 | 9.99701 | 31 ft | 7 kts | 90° |
| 2026-05-07 14:07 | 53.63293 | 9.99793 | 31 ft | 8 kts | 54° |
| 2026-05-07 14:07 | 53.63338 | 9.99878 | 32 ft | 10 kts | 45° |
| 2026-05-07 14:07 | 53.63390 | 9.99973 | 33 ft | 11 kts | 52° |
| 2026-05-07 14:07 | 53.63419 | 10.00096 | 37 ft | 10 kts | 88° |
| 2026-05-07 14:08 | 53.63378 | 10.00219 | 40 ft | 16 kts | 151° |
| 2026-05-07 14:08 | 53.63263 | 10.00240 | 40 ft | 15 kts | 176° |
| 2026-05-07 14:08 | 53.63163 | 10.00252 | 38 ft | 12 kts | 175° |
| 2026-05-07 14:08 | 53.63111 | 10.00294 | 40 ft | 5 kts | 92° |
| 2026-05-07 14:09 | 53.63110 | 10.00329 | 41 ft | 0 kts | 90° |
| 2026-05-07 14:09 | 53.63110 | 10.00332 | 41 ft | 0 kts | 89° |
| 2026-05-07 14:09 | 53.63111 | 10.00358 | 42 ft | 3 kts | 86° |
| 2026-05-07 14:09 | 53.63112 | 10.00363 | 43 ft | 0 kts | 86° |